Glazov, Russia
Current Conditions -  °F | °C
As of 3:00 AM on Friday 28 Nov 2014 (Local Time) from USPP Reporting Station
Light Snow Light Snow  
Wind Chill:   Ceiling: 2800
Heat Index: 19°   Visibility: 4mi
Dew Point: 18°   Wind: 9mph
Humidity: 93%   Direction: 220°SW
Pressure: 30.5"   Gusts: NA
Location:  58.14°N, 52.66°E
Report Text: USPP 272300Z 22004MPS 7000 -SN BKN028 OVC070 M07/M08 Q1033 21490340 NOSIG RMK QFE764/1018
Loading
Personal Weather Stations






























Interactive Weather Map New forecast layout! Learn more

10-Day Weather Forecast

Advertisements
Track Severe Weather on mobile